sensor_id;sensor_type;location;lat;lon;timestamp;P1;durP1;ratioP1;P2;durP2;ratioP2
20298;SDS011;10308;42.688;23.256;2022-09-16T00:00:10;4.90;;;3.83;;
20298;SDS011;10308;42.688;23.256;2022-09-16T00:02:37;7.75;;;4.32;;
20298;SDS011;10308;42.688;23.256;2022-09-16T00:05:04;10.52;;;5.22;;
20298;SDS011;10308;42.688;23.256;2022-09-16T00:07:31;7.78;;;4.85;;
20298;SDS011;10308;42.688;23.256;2022-09-16T00:09:58;7.85;;;4.93;;
20298;SDS011;10308;42.688;23.256;2022-09-16T00:12:27;7.57;;;4.70;;
20298;SDS011;10308;42.688;23.256;2022-09-16T00:14:54;8.25;;;5.38;;
20298;SDS011;10308;42.688;23.256;2022-09-16T00:17:21;7.32;;;5.22;;
20298;SDS011;10308;42.688;23.256;2022-09-16T00:19:48;9.40;;;5.88;;
20298;SDS011;10308;42.688;23.256;2022-09-16T00:22:17;12.38;;;6.15;;
20298;SDS011;10308;42.688;23.256;2022-09-16T00:24:44;9.00;;;5.90;;
20298;SDS011;10308;42.688;23.256;2022-09-16T00:27:13;9.52;;;5.10;;
20298;SDS011;10308;42.688;23.256;2022-09-16T00:29:41;9.20;;;4.50;;
20298;SDS011;10308;42.688;23.256;2022-09-16T00:32:08;9.48;;;4.70;;
20298;SDS011;10308;42.688;23.256;2022-09-16T00:34:34;7.55;;;4.78;;
20298;SDS011;10308;42.688;23.256;2022-09-16T00:37:01;9.80;;;4.95;;
20298;SDS011;10308;42.688;23.256;2022-09-16T00:39:28;6.80;;;4.03;;
20298;SDS011;10308;42.688;23.256;2022-09-16T00:41:55;5.78;;;3.83;;
20298;SDS011;10308;42.688;23.256;2022-09-16T00:47:20;7.00;;;3.90;;
20298;SDS011;10308;42.688;23.256;2022-09-16T00:49:50;5.50;;;3.55;;
20298;SDS011;10308;42.688;23.256;2022-09-16T00:52:18;9.38;;;4.63;;
20298;SDS011;10308;42.688;23.256;2022-09-16T00:54:45;8.10;;;4.57;;
20298;SDS011;10308;42.688;23.256;2022-09-16T00:57:12;8.85;;;4.68;;
20298;SDS011;10308;42.688;23.256;2022-09-16T00:59:40;6.55;;;4.68;;
20298;SDS011;10308;42.688;23.256;2022-09-16T01:02:10;6.43;;;4.53;;
20298;SDS011;10308;42.688;23.256;2022-09-16T01:04:41;8.55;;;4.57;;
20298;SDS011;10308;42.688;23.256;2022-09-16T01:07:10;9.10;;;4.68;;
20298;SDS011;10308;42.688;23.256;2022-09-16T01:09:37;9.20;;;4.20;;
20298;SDS011;10308;42.688;23.256;2022-09-16T01:12:05;6.47;;;4.18;;
20298;SDS011;10308;42.688;23.256;2022-09-16T01:14:31;7.75;;;3.88;;
20298;SDS011;10308;42.688;23.256;2022-09-16T01:17:19;5.00;;;3.70;;
20298;SDS011;10308;42.688;23.256;2022-09-16T01:19:59;6.90;;;3.55;;
20298;SDS011;10308;42.688;23.256;2022-09-16T01:22:37;6.72;;;4.75;;
20298;SDS011;10308;42.688;23.256;2022-09-16T01:25:15;9.05;;;5.57;;
20298;SDS011;10308;42.688;23.256;2022-09-16T01:27:55;16.92;;;9.20;;
20298;SDS011;10308;42.688;23.256;2022-09-16T01:30:55;16.63;;;8.77;;
20298;SDS011;10308;42.688;23.256;2022-09-16T01:33:29;17.38;;;8.50;;
20298;SDS011;10308;42.688;23.256;2022-09-16T01:36:15;16.52;;;7.68;;
20298;SDS011;10308;42.688;23.256;2022-09-16T01:38:58;16.55;;;9.50;;
20298;SDS011;10308;42.688;23.256;2022-09-16T01:41:34;8.07;;;5.68;;
20298;SDS011;10308;42.688;23.256;2022-09-16T01:44:07;9.65;;;4.50;;
20298;SDS011;10308;42.688;23.256;2022-09-16T01:46:42;8.38;;;4.03;;
20298;SDS011;10308;42.688;23.256;2022-09-16T01:49:14;6.85;;;3.50;;
20298;SDS011;10308;42.688;23.256;2022-09-16T01:51:45;5.15;;;3.30;;
20298;SDS011;10308;42.688;23.256;2022-09-16T01:54:17;4.93;;;3.00;;
20298;SDS011;10308;42.688;23.256;2022-09-16T01:56:48;7.57;;;3.38;;
20298;SDS011;10308;42.688;23.256;2022-09-16T01:59:19;6.35;;;3.30;;
20298;SDS011;10308;42.688;23.256;2022-09-16T02:01:51;4.40;;;2.95;;
20298;SDS011;10308;42.688;23.256;2022-09-16T02:04:21;4.22;;;2.83;;
20298;SDS011;10308;42.688;23.256;2022-09-16T02:06:49;5.45;;;3.17;;
20298;SDS011;10308;42.688;23.256;2022-09-16T02:09:18;6.38;;;3.95;;
20298;SDS011;10308;42.688;23.256;2022-09-16T02:11:46;8.52;;;4.50;;
20298;SDS011;10308;42.688;23.256;2022-09-16T02:14:16;8.85;;;4.80;;
20298;SDS011;10308;42.688;23.256;2022-09-16T02:16:45;9.05;;;4.55;;
20298;SDS011;10308;42.688;23.256;2022-09-16T02:19:18;7.53;;;4.10;;
20298;SDS011;10308;42.688;23.256;2022-09-16T02:21:47;8.93;;;4.65;;
20298;SDS011;10308;42.688;23.256;2022-09-16T02:24:16;8.10;;;3.80;;
20298;SDS011;10308;42.688;23.256;2022-09-16T02:26:46;7.63;;;4.18;;
20298;SDS011;10308;42.688;23.256;2022-09-16T02:29:16;7.22;;;3.58;;
20298;SDS011;10308;42.688;23.256;2022-09-16T02:31:47;7.32;;;3.63;;
20298;SDS011;10308;42.688;23.256;2022-09-16T02:34:16;5.82;;;3.40;;
20298;SDS011;10308;42.688;23.256;2022-09-16T02:36:46;7.10;;;3.85;;
20298;SDS011;10308;42.688;23.256;2022-09-16T02:39:17;6.70;;;3.33;;
20298;SDS011;10308;42.688;23.256;2022-09-16T02:41:47;6.65;;;3.25;;
20298;SDS011;10308;42.688;23.256;2022-09-16T02:44:14;8.07;;;3.05;;
20298;SDS011;10308;42.688;23.256;2022-09-16T02:46:43;6.40;;;3.20;;
20298;SDS011;10308;42.688;23.256;2022-09-16T02:49:20;4.28;;;2.92;;
20298;SDS011;10308;42.688;23.256;2022-09-16T02:51:53;3.97;;;3.03;;
20298;SDS011;10308;42.688;23.256;2022-09-16T02:54:30;4.40;;;2.85;;
20298;SDS011;10308;42.688;23.256;2022-09-16T02:57:01;3.70;;;2.83;;
20298;SDS011;10308;42.688;23.256;2022-09-16T02:59:28;5.20;;;2.85;;
20298;SDS011;10308;42.688;23.256;2022-09-16T03:01:57;5.07;;;3.17;;
20298;SDS011;10308;42.688;23.256;2022-09-16T03:04:25;4.80;;;2.78;;
20298;SDS011;10308;42.688;23.256;2022-09-16T03:06:53;4.13;;;2.70;;
20298;SDS011;10308;42.688;23.256;2022-09-16T03:09:20;6.95;;;3.53;;
20298;SDS011;10308;42.688;23.256;2022-09-16T03:11:52;6.15;;;2.85;;
20298;SDS011;10308;42.688;23.256;2022-09-16T03:14:45;4.22;;;2.92;;
20298;SDS011;10308;42.688;23.256;2022-09-16T03:17:24;3.92;;;2.90;;
20298;SDS011;10308;42.688;23.256;2022-09-16T03:20:00;5.47;;;2.75;;
20298;SDS011;10308;42.688;23.256;2022-09-16T03:22:35;4.13;;;2.97;;
20298;SDS011;10308;42.688;23.256;2022-09-16T03:25:10;5.80;;;3.30;;
20298;SDS011;10308;42.688;23.256;2022-09-16T03:27:41;5.85;;;3.75;;
20298;SDS011;10308;42.688;23.256;2022-09-16T03:30:09;5.65;;;3.53;;
20298;SDS011;10308;42.688;23.256;2022-09-16T03:32:38;7.35;;;3.53;;
20298;SDS011;10308;42.688;23.256;2022-09-16T03:35:10;6.35;;;3.50;;
20298;SDS011;10308;42.688;23.256;2022-09-16T03:37:41;8.45;;;3.58;;
20298;SDS011;10308;42.688;23.256;2022-09-16T03:40:10;6.15;;;3.60;;
20298;SDS011;10308;42.688;23.256;2022-09-16T03:42:38;5.50;;;3.53;;
20298;SDS011;10308;42.688;23.256;2022-09-16T03:45:06;6.15;;;3.35;;
20298;SDS011;10308;42.688;23.256;2022-09-16T03:47:33;5.93;;;3.90;;
20298;SDS011;10308;42.688;23.256;2022-09-16T03:50:00;9.73;;;4.47;;
20298;SDS011;10308;42.688;23.256;2022-09-16T03:52:29;5.35;;;4.25;;
20298;SDS011;10308;42.688;23.256;2022-09-16T03:54:55;7.40;;;3.92;;
20298;SDS011;10308;42.688;23.256;2022-09-16T03:57:22;8.27;;;3.70;;
20298;SDS011;10308;42.688;23.256;2022-09-16T03:59:49;7.95;;;3.55;;
20298;SDS011;10308;42.688;23.256;2022-09-16T04:02:16;8.45;;;4.32;;
20298;SDS011;10308;42.688;23.256;2022-09-16T04:04:42;7.28;;;3.50;;
20298;SDS011;10308;42.688;23.256;2022-09-16T04:07:09;5.07;;;3.42;;
20298;SDS011;10308;42.688;23.256;2022-09-16T04:09:37;6.35;;;3.25;;
20298;SDS011;10308;42.688;23.256;2022-09-16T04:12:04;7.05;;;3.40;;
20298;SDS011;10308;42.688;23.256;2022-09-16T04:14:31;6.90;;;3.40;;
20298;SDS011;10308;42.688;23.256;2022-09-16T04:16:58;7.28;;;3.60;;
20298;SDS011;10308;42.688;23.256;2022-09-16T04:19:25;6.28;;;3.45;;
20298;SDS011;10308;42.688;23.256;2022-09-16T04:21:52;3.75;;;3.28;;
20298;SDS011;10308;42.688;23.256;2022-09-16T04:24:19;4.78;;;3.60;;
20298;SDS011;10308;42.688;23.256;2022-09-16T04:26:47;6.22;;;3.92;;
20298;SDS011;10308;42.688;23.256;2022-09-16T04:29:14;6.53;;;3.28;;
20298;SDS011;10308;42.688;23.256;2022-09-16T04:31:41;9.45;;;4.85;;
20298;SDS011;10308;42.688;23.256;2022-09-16T04:34:08;8.07;;;4.90;;
20298;SDS011;10308;42.688;23.256;2022-09-16T04:36:36;6.18;;;4.07;;
20298;SDS011;10308;42.688;23.256;2022-09-16T04:39:03;7.85;;;4.70;;
20298;SDS011;10308;42.688;23.256;2022-09-16T04:41:30;8.15;;;4.00;;
20298;SDS011;10308;42.688;23.256;2022-09-16T04:43:59;7.85;;;4.22;;
20298;SDS011;10308;42.688;23.256;2022-09-16T04:46:28;6.45;;;3.97;;
20298;SDS011;10308;42.688;23.256;2022-09-16T04:48:57;10.48;;;5.00;;
20298;SDS011;10308;42.688;23.256;2022-09-16T04:51:25;7.75;;;4.57;;
20298;SDS011;10308;42.688;23.256;2022-09-16T04:53:53;10.40;;;5.15;;
20298;SDS011;10308;42.688;23.256;2022-09-16T04:56:21;8.25;;;5.38;;
20298;SDS011;10308;42.688;23.256;2022-09-16T04:58:50;10.32;;;5.90;;
20298;SDS011;10308;42.688;23.256;2022-09-16T05:01:20;9.27;;;4.43;;
20298;SDS011;10308;42.688;23.256;2022-09-16T05:03:48;8.95;;;3.92;;
20298;SDS011;10308;42.688;23.256;2022-09-16T05:06:17;7.50;;;4.20;;
20298;SDS011;10308;42.688;23.256;2022-09-16T05:08:45;7.60;;;4.53;;
20298;SDS011;10308;42.688;23.256;2022-09-16T05:11:12;7.82;;;3.97;;
20298;SDS011;10308;42.688;23.256;2022-09-16T05:13:40;8.02;;;3.83;;
20298;SDS011;10308;42.688;23.256;2022-09-16T05:16:08;7.60;;;3.97;;
20298;SDS011;10308;42.688;23.256;2022-09-16T05:18:38;8.05;;;4.13;;
20298;SDS011;10308;42.688;23.256;2022-09-16T05:21:05;10.07;;;4.25;;
20298;SDS011;10308;42.688;23.256;2022-09-16T05:23:34;13.27;;;4.93;;
20298;SDS011;10308;42.688;23.256;2022-09-16T05:26:02;10.75;;;4.47;;
20298;SDS011;10308;42.688;23.256;2022-09-16T05:28:30;12.88;;;5.32;;
20298;SDS011;10308;42.688;23.256;2022-09-16T05:31:06;15.70;;;5.07;;
20298;SDS011;10308;42.688;23.256;2022-09-16T05:33:34;14.18;;;5.05;;
20298;SDS011;10308;42.688;23.256;2022-09-16T05:36:04;11.60;;;4.95;;
20298;SDS011;10308;42.688;23.256;2022-09-16T05:38:31;11.02;;;4.50;;
20298;SDS011;10308;42.688;23.256;2022-09-16T05:40:58;8.98;;;4.53;;
20298;SDS011;10308;42.688;23.256;2022-09-16T05:43:25;9.90;;;4.88;;
20298;SDS011;10308;42.688;23.256;2022-09-16T05:45:52;11.93;;;4.80;;
20298;SDS011;10308;42.688;23.256;2022-09-16T05:48:18;11.73;;;4.97;;
20298;SDS011;10308;42.688;23.256;2022-09-16T05:50:49;10.20;;;4.80;;
20298;SDS011;10308;42.688;23.256;2022-09-16T05:53:18;8.38;;;5.05;;
20298;SDS011;10308;42.688;23.256;2022-09-16T05:55:53;7.88;;;4.03;;
20298;SDS011;10308;42.688;23.256;2022-09-16T05:58:20;13.02;;;4.85;;
20298;SDS011;10308;42.688;23.256;2022-09-16T06:00:47;14.57;;;5.82;;
20298;SDS011;10308;42.688;23.256;2022-09-16T06:03:14;12.30;;;5.95;;
20298;SDS011;10308;42.688;23.256;2022-09-16T06:05:41;12.07;;;4.85;;
20298;SDS011;10308;42.688;23.256;2022-09-16T06:08:08;15.02;;;5.93;;
20298;SDS011;10308;42.688;23.256;2022-09-16T06:10:37;10.18;;;4.95;;
20298;SDS011;10308;42.688;23.256;2022-09-16T06:13:04;7.78;;;4.30;;
20298;SDS011;10308;42.688;23.256;2022-09-16T06:15:31;5.70;;;3.78;;
20298;SDS011;10308;42.688;23.256;2022-09-16T06:17:58;9.98;;;3.47;;
20298;SDS011;10308;42.688;23.256;2022-09-16T06:20:24;5.47;;;3.30;;
20298;SDS011;10308;42.688;23.256;2022-09-16T06:22:51;6.97;;;3.50;;
20298;SDS011;10308;42.688;23.256;2022-09-16T06:25:18;5.30;;;2.80;;
20298;SDS011;10308;42.688;23.256;2022-09-16T06:27:47;5.85;;;2.80;;
20298;SDS011;10308;42.688;23.256;2022-09-16T06:30:14;8.13;;;3.25;;
20298;SDS011;10308;42.688;23.256;2022-09-16T06:32:40;5.88;;;2.83;;
20298;SDS011;10308;42.688;23.256;2022-09-16T06:35:07;7.80;;;3.15;;
20298;SDS011;10308;42.688;23.256;2022-09-16T06:37:35;7.03;;;2.92;;
20298;SDS011;10308;42.688;23.256;2022-09-16T06:40:02;10.55;;;3.15;;
20298;SDS011;10308;42.688;23.256;2022-09-16T06:42:28;7.95;;;3.20;;
20298;SDS011;10308;42.688;23.256;2022-09-16T06:44:59;5.00;;;2.55;;
20298;SDS011;10308;42.688;23.256;2022-09-16T06:47:28;4.57;;;2.80;;
20298;SDS011;10308;42.688;23.256;2022-09-16T06:49:57;4.45;;;2.53;;
20298;SDS011;10308;42.688;23.256;2022-09-16T06:52:24;7.60;;;3.58;;
20298;SDS011;10308;42.688;23.256;2022-09-16T06:54:51;6.75;;;3.63;;
20298;SDS011;10308;42.688;23.256;2022-09-16T06:57:17;7.07;;;3.17;;
20298;SDS011;10308;42.688;23.256;2022-09-16T06:59:47;5.65;;;3.22;;
20298;SDS011;10308;42.688;23.256;2022-09-16T07:02:15;5.00;;;2.90;;
20298;SDS011;10308;42.688;23.256;2022-09-16T07:04:42;6.13;;;3.25;;
20298;SDS011;10308;42.688;23.256;2022-09-16T07:07:08;6.63;;;3.33;;
20298;SDS011;10308;42.688;23.256;2022-09-16T07:09:35;4.43;;;3.28;;
20298;SDS011;10308;42.688;23.256;2022-09-16T07:12:02;5.07;;;3.30;;
20298;SDS011;10308;42.688;23.256;2022-09-16T07:14:29;6.60;;;4.00;;
20298;SDS011;10308;42.688;23.256;2022-09-16T07:16:56;6.97;;;3.38;;
20298;SDS011;10308;42.688;23.256;2022-09-16T07:19:25;7.72;;;4.00;;
20298;SDS011;10308;42.688;23.256;2022-09-16T07:21:53;11.10;;;4.90;;
20298;SDS011;10308;42.688;23.256;2022-09-16T07:24:20;9.10;;;3.85;;
20298;SDS011;10308;42.688;23.256;2022-09-16T07:26:46;4.45;;;3.25;;
20298;SDS011;10308;42.688;23.256;2022-09-16T07:29:14;5.85;;;3.40;;
20298;SDS011;10308;42.688;23.256;2022-09-16T07:31:41;6.32;;;3.38;;
20298;SDS011;10308;42.688;23.256;2022-09-16T07:34:09;7.25;;;3.15;;
20298;SDS011;10308;42.688;23.256;2022-09-16T07:36:39;5.40;;;3.05;;
20298;SDS011;10308;42.688;23.256;2022-09-16T07:39:06;6.07;;;3.05;;
20298;SDS011;10308;42.688;23.256;2022-09-16T07:41:35;5.93;;;3.42;;
20298;SDS011;10308;42.688;23.256;2022-09-16T07:44:03;6.32;;;3.30;;
20298;SDS011;10308;42.688;23.256;2022-09-16T07:46:31;5.85;;;4.07;;
20298;SDS011;10308;42.688;23.256;2022-09-16T07:49:00;7.15;;;3.97;;
20298;SDS011;10308;42.688;23.256;2022-09-16T07:51:28;6.00;;;3.30;;
20298;SDS011;10308;42.688;23.256;2022-09-16T07:53:58;6.28;;;3.80;;
20298;SDS011;10308;42.688;23.256;2022-09-16T07:56:26;5.68;;;3.33;;
20298;SDS011;10308;42.688;23.256;2022-09-16T07:58:54;4.57;;;3.20;;
20298;SDS011;10308;42.688;23.256;2022-09-16T08:01:22;4.78;;;3.25;;
20298;SDS011;10308;42.688;23.256;2022-09-16T08:03:49;5.88;;;3.13;;
20298;SDS011;10308;42.688;23.256;2022-09-16T08:06:16;5.28;;;2.80;;
20298;SDS011;10308;42.688;23.256;2022-09-16T08:08:44;6.15;;;2.88;;
20298;SDS011;10308;42.688;23.256;2022-09-16T08:11:13;7.65;;;3.53;;
20298;SDS011;10308;42.688;23.256;2022-09-16T08:13:40;6.47;;;2.97;;
20298;SDS011;10308;42.688;23.256;2022-09-16T08:16:09;4.32;;;2.47;;
20298;SDS011;10308;42.688;23.256;2022-09-16T08:18:37;4.47;;;3.08;;
20298;SDS011;10308;42.688;23.256;2022-09-16T08:21:04;7.97;;;2.88;;
20298;SDS011;10308;42.688;23.256;2022-09-16T08:23:32;4.55;;;3.28;;
20298;SDS011;10308;42.688;23.256;2022-09-16T08:25:59;6.13;;;3.40;;
20298;SDS011;10308;42.688;23.256;2022-09-16T08:28:28;7.47;;;3.53;;
20298;SDS011;10308;42.688;23.256;2022-09-16T08:30:57;4.88;;;3.25;;
20298;SDS011;10308;42.688;23.256;2022-09-16T08:33:24;7.43;;;3.08;;
20298;SDS011;10308;42.688;23.256;2022-09-16T08:35:56;6.32;;;3.15;;
20298;SDS011;10308;42.688;23.256;2022-09-16T08:38:24;7.72;;;2.80;;
20298;SDS011;10308;42.688;23.256;2022-09-16T08:40:51;9.35;;;3.20;;
20298;SDS011;10308;42.688;23.256;2022-09-16T08:43:21;5.60;;;3.00;;
20298;SDS011;10308;42.688;23.256;2022-09-16T08:45:54;5.53;;;3.50;;
20298;SDS011;10308;42.688;23.256;2022-09-16T08:48:26;6.32;;;3.30;;
20298;SDS011;10308;42.688;23.256;2022-09-16T08:50:56;6.90;;;3.03;;
20298;SDS011;10308;42.688;23.256;2022-09-16T08:53:27;6.30;;;3.15;;
20298;SDS011;10308;42.688;23.256;2022-09-16T08:55:58;8.10;;;3.58;;
20298;SDS011;10308;42.688;23.256;2022-09-16T08:58:30;6.72;;;3.40;;
20298;SDS011;10308;42.688;23.256;2022-09-16T09:01:01;7.97;;;3.30;;
20298;SDS011;10308;42.688;23.256;2022-09-16T09:03:32;6.63;;;3.30;;
20298;SDS011;10308;42.688;23.256;2022-09-16T09:06:05;5.00;;;2.88;;
20298;SDS011;10308;42.688;23.256;2022-09-16T09:08:42;5.50;;;3.10;;
20298;SDS011;10308;42.688;23.256;2022-09-16T09:11:17;5.75;;;3.10;;
20298;SDS011;10308;42.688;23.256;2022-09-16T09:13:55;4.53;;;3.28;;
20298;SDS011;10308;42.688;23.256;2022-09-16T09:16:32;7.43;;;2.95;;
20298;SDS011;10308;42.688;23.256;2022-09-16T09:19:06;4.15;;;2.90;;
20298;SDS011;10308;42.688;23.256;2022-09-16T09:21:41;6.70;;;3.10;;
20298;SDS011;10308;42.688;23.256;2022-09-16T09:24:16;7.38;;;3.92;;
20298;SDS011;10308;42.688;23.256;2022-09-16T09:26:51;5.95;;;4.10;;
20298;SDS011;10308;42.688;23.256;2022-09-16T09:32:18;3.95;;;2.85;;
20298;SDS011;10308;42.688;23.256;2022-09-16T09:35:02;10.48;;;4.15;;
20298;SDS011;10308;42.688;23.256;2022-09-16T09:37:41;7.45;;;3.38;;
20298;SDS011;10308;42.688;23.256;2022-09-16T09:40:18;5.68;;;3.05;;
20298;SDS011;10308;42.688;23.256;2022-09-16T09:42:49;8.13;;;2.92;;
20298;SDS011;10308;42.688;23.256;2022-09-16T09:45:25;7.70;;;3.17;;
20298;SDS011;10308;42.688;23.256;2022-09-16T09:47:56;4.43;;;3.05;;
20298;SDS011;10308;42.688;23.256;2022-09-16T09:50:26;6.75;;;3.20;;
20298;SDS011;10308;42.688;23.256;2022-09-16T09:53:01;5.60;;;3.10;;
20298;SDS011;10308;42.688;23.256;2022-09-16T09:55:33;6.65;;;2.90;;
20298;SDS011;10308;42.688;23.256;2022-09-16T09:58:05;6.07;;;3.00;;
20298;SDS011;10308;42.688;23.256;2022-09-16T10:00:42;8.75;;;4.40;;
20298;SDS011;10308;42.688;23.256;2022-09-16T10:03:11;6.93;;;3.38;;
20298;SDS011;10308;42.688;23.256;2022-09-16T10:05:40;10.27;;;4.45;;
20298;SDS011;10308;42.688;23.256;2022-09-16T10:08:11;9.27;;;4.38;;
20298;SDS011;10308;42.688;23.256;2022-09-16T10:10:43;11.68;;;5.20;;
20298;SDS011;10308;42.688;23.256;2022-09-16T10:13:12;9.38;;;5.18;;
20298;SDS011;10308;42.688;23.256;2022-09-16T10:15:40;8.00;;;4.47;;
20298;SDS011;10308;42.688;23.256;2022-09-16T10:18:09;6.82;;;3.80;;
20298;SDS011;10308;42.688;23.256;2022-09-16T10:20:41;8.27;;;4.20;;
20298;SDS011;10308;42.688;23.256;2022-09-16T10:23:10;7.28;;;3.67;;
20298;SDS011;10308;42.688;23.256;2022-09-16T10:25:38;7.03;;;2.92;;
20298;SDS011;10308;42.688;23.256;2022-09-16T10:28:05;7.70;;;3.05;;
20298;SDS011;10308;42.688;23.256;2022-09-16T10:30:45;6.35;;;3.00;;
20298;SDS011;10308;42.688;23.256;2022-09-16T10:33:16;4.68;;;2.53;;
20298;SDS011;10308;42.688;23.256;2022-09-16T10:35:50;6.28;;;2.60;;
20298;SDS011;10308;42.688;23.256;2022-09-16T10:38:20;4.20;;;3.40;;
20298;SDS011;10308;42.688;23.256;2022-09-16T10:40:51;6.45;;;3.40;;
20298;SDS011;10308;42.688;23.256;2022-09-16T10:43:19;4.30;;;2.80;;
20298;SDS011;10308;42.688;23.256;2022-09-16T10:45:47;4.57;;;2.70;;
20298;SDS011;10308;42.688;23.256;2022-09-16T10:48:17;5.97;;;2.85;;
20298;SDS011;10308;42.688;23.256;2022-09-16T10:50:52;3.42;;;2.38;;
20298;SDS011;10308;42.688;23.256;2022-09-16T10:53:26;5.75;;;3.05;;
20298;SDS011;10308;42.688;23.256;2022-09-16T10:55:56;5.20;;;2.63;;
20298;SDS011;10308;42.688;23.256;2022-09-16T10:58:24;2.67;;;2.20;;
20298;SDS011;10308;42.688;23.256;2022-09-16T11:00:55;3.10;;;1.95;;
20298;SDS011;10308;42.688;23.256;2022-09-16T11:03:33;3.05;;;1.98;;
20298;SDS011;10308;42.688;23.256;2022-09-16T11:06:15;4.25;;;2.40;;
20298;SDS011;10308;42.688;23.256;2022-09-16T11:08:51;2.65;;;2.08;;
20298;SDS011;10308;42.688;23.256;2022-09-16T11:11:41;2.63;;;2.03;;
20298;SDS011;10308;42.688;23.256;2022-09-16T11:14:16;5.15;;;3.30;;
20298;SDS011;10308;42.688;23.256;2022-09-16T11:16:57;2.22;;;1.80;;
20298;SDS011;10308;42.688;23.256;2022-09-16T11:19:38;3.78;;;2.20;;
20298;SDS011;10308;42.688;23.256;2022-09-16T11:22:13;2.45;;;2.22;;
20298;SDS011;10308;42.688;23.256;2022-09-16T11:25:12;4.18;;;2.67;;
20298;SDS011;10308;42.688;23.256;2022-09-16T11:27:49;2.72;;;1.77;;
20298;SDS011;10308;42.688;23.256;2022-09-16T11:30:18;3.88;;;2.45;;
20298;SDS011;10308;42.688;23.256;2022-09-16T11:35:45;2.72;;;1.60;;
20298;SDS011;10308;42.688;23.256;2022-09-16T11:38:32;2.65;;;1.60;;
20298;SDS011;10308;42.688;23.256;2022-09-16T11:41:05;2.97;;;1.50;;
20298;SDS011;10308;42.688;23.256;2022-09-16T11:43:41;3.35;;;1.88;;
20298;SDS011;10308;42.688;23.256;2022-09-16T11:46:15;2.45;;;1.60;;
20298;SDS011;10308;42.688;23.256;2022-09-16T11:48:52;1.73;;;1.50;;
20298;SDS011;10308;42.688;23.256;2022-09-16T11:51:29;1.83;;;1.45;;
20298;SDS011;10308;42.688;23.256;2022-09-16T11:54:06;2.60;;;1.92;;
20298;SDS011;10308;42.688;23.256;2022-09-16T11:56:40;1.40;;;1.25;;
20298;SDS011;10308;42.688;23.256;2022-09-16T11:59:12;2.50;;;1.70;;
20298;SDS011;10308;42.688;23.256;2022-09-16T12:01:43;2.60;;;1.70;;
20298;SDS011;10308;42.688;23.256;2022-09-16T12:04:13;2.38;;;1.92;;
20298;SDS011;10308;42.688;23.256;2022-09-16T12:06:49;4.45;;;2.58;;
20298;SDS011;10308;42.688;23.256;2022-09-16T12:09:19;4.40;;;2.90;;
20298;SDS011;10308;42.688;23.256;2022-09-16T12:11:50;3.95;;;2.65;;
20298;SDS011;10308;42.688;23.256;2022-09-16T12:14:21;3.50;;;2.30;;
20298;SDS011;10308;42.688;23.256;2022-09-16T12:16:51;4.22;;;2.45;;
20298;SDS011;10308;42.688;23.256;2022-09-16T12:19:28;2.85;;;2.50;;
20298;SDS011;10308;42.688;23.256;2022-09-16T12:22:00;3.30;;;2.35;;
20298;SDS011;10308;42.688;23.256;2022-09-16T12:24:30;2.33;;;2.03;;
20298;SDS011;10308;42.688;23.256;2022-09-16T12:27:04;3.65;;;2.50;;
20298;SDS011;10308;42.688;23.256;2022-09-16T12:29:35;3.13;;;2.22;;
20298;SDS011;10308;42.688;23.256;2022-09-16T12:32:07;3.30;;;2.75;;
20298;SDS011;10308;42.688;23.256;2022-09-16T12:34:37;2.08;;;1.88;;
20298;SDS011;10308;42.688;23.256;2022-09-16T12:37:19;2.92;;;1.90;;
20298;SDS011;10308;42.688;23.256;2022-09-16T12:39:52;2.10;;;1.90;;
20298;SDS011;10308;42.688;23.256;2022-09-16T12:42:24;2.65;;;1.83;;
20298;SDS011;10308;42.688;23.256;2022-09-16T12:45:23;1.90;;;1.80;;
20298;SDS011;10308;42.688;23.256;2022-09-16T12:48:08;2.60;;;2.00;;
20298;SDS011;10308;42.688;23.256;2022-09-16T12:50:46;2.63;;;1.80;;
20298;SDS011;10308;42.688;23.256;2022-09-16T12:53:36;3.10;;;1.88;;
20298;SDS011;10308;42.688;23.256;2022-09-16T12:56:18;2.33;;;1.63;;
20298;SDS011;10308;42.688;23.256;2022-09-16T12:59:04;2.88;;;1.80;;
20298;SDS011;10308;42.688;23.256;2022-09-16T13:01:41;2.88;;;2.35;;
20298;SDS011;10308;42.688;23.256;2022-09-16T13:04:12;2.90;;;2.70;;
20298;SDS011;10308;42.688;23.256;2022-09-16T13:06:43;3.45;;;2.40;;
20298;SDS011;10308;42.688;23.256;2022-09-16T13:09:18;4.15;;;2.83;;
20298;SDS011;10308;42.688;23.256;2022-09-16T13:11:51;3.55;;;2.78;;
20298;SDS011;10308;42.688;23.256;2022-09-16T13:14:22;4.55;;;2.50;;
20298;SDS011;10308;42.688;23.256;2022-09-16T13:16:53;3.42;;;2.70;;
20298;SDS011;10308;42.688;23.256;2022-09-16T13:19:34;3.88;;;2.85;;
20298;SDS011;10308;42.688;23.256;2022-09-16T13:22:15;3.95;;;2.78;;
20298;SDS011;10308;42.688;23.256;2022-09-16T13:24:47;1.90;;;1.77;;
20298;SDS011;10308;42.688;23.256;2022-09-16T13:27:29;2.00;;;1.80;;
20298;SDS011;10308;42.688;23.256;2022-09-16T13:36:03;2.38;;;1.90;;
20298;SDS011;10308;42.688;23.256;2022-09-16T13:38:39;3.28;;;1.98;;
20298;SDS011;10308;42.688;23.256;2022-09-16T13:41:09;2.67;;;1.80;;
20298;SDS011;10308;42.688;23.256;2022-09-16T13:43:47;2.55;;;1.60;;
20298;SDS011;10308;42.688;23.256;2022-09-16T13:46:27;2.00;;;1.55;;
20298;SDS011;10308;42.688;23.256;2022-09-16T13:48:56;2.00;;;1.80;;
20298;SDS011;10308;42.688;23.256;2022-09-16T13:51:29;2.45;;;1.85;;
20298;SDS011;10308;42.688;23.256;2022-09-16T13:53:58;1.80;;;1.70;;
20298;SDS011;10308;42.688;23.256;2022-09-16T13:56:41;2.15;;;1.95;;
20298;SDS011;10308;42.688;23.256;2022-09-16T13:59:21;3.70;;;2.20;;
20298;SDS011;10308;42.688;23.256;2022-09-16T14:01:59;2.00;;;1.70;;
20298;SDS011;10308;42.688;23.256;2022-09-16T14:04:37;2.58;;;2.20;;
20298;SDS011;10308;42.688;23.256;2022-09-16T14:07:23;3.40;;;2.13;;
20298;SDS011;10308;42.688;23.256;2022-09-16T14:09:58;2.58;;;2.15;;
20298;SDS011;10308;42.688;23.256;2022-09-16T14:12:29;5.30;;;3.60;;
20298;SDS011;10308;42.688;23.256;2022-09-16T14:15:00;2.90;;;2.70;;
20298;SDS011;10308;42.688;23.256;2022-09-16T14:17:30;3.25;;;2.20;;
20298;SDS011;10308;42.688;23.256;2022-09-16T14:19:59;2.17;;;1.90;;
20298;SDS011;10308;42.688;23.256;2022-09-16T14:22:26;2.50;;;1.85;;
20298;SDS011;10308;42.688;23.256;2022-09-16T14:24:54;4.07;;;1.88;;
20298;SDS011;10308;42.688;23.256;2022-09-16T14:27:27;3.08;;;2.20;;
20298;SDS011;10308;42.688;23.256;2022-09-16T14:29:58;3.00;;;1.88;;
20298;SDS011;10308;42.688;23.256;2022-09-16T14:32:27;3.63;;;1.85;;
20298;SDS011;10308;42.688;23.256;2022-09-16T14:34:55;2.72;;;2.28;;
20298;SDS011;10308;42.688;23.256;2022-09-16T14:37:23;2.30;;;1.85;;
20298;SDS011;10308;42.688;23.256;2022-09-16T14:39:51;3.38;;;1.90;;
20298;SDS011;10308;42.688;23.256;2022-09-16T14:42:19;2.75;;;2.13;;
20298;SDS011;10308;42.688;23.256;2022-09-16T14:44:50;3.25;;;2.28;;
20298;SDS011;10308;42.688;23.256;2022-09-16T14:47:20;3.10;;;2.08;;
20298;SDS011;10308;42.688;23.256;2022-09-16T14:49:50;2.55;;;2.35;;
20298;SDS011;10308;42.688;23.256;2022-09-16T14:52:21;3.60;;;2.67;;
20298;SDS011;10308;42.688;23.256;2022-09-16T14:54:48;4.43;;;3.10;;
20298;SDS011;10308;42.688;23.256;2022-09-16T14:57:16;4.95;;;2.40;;
20298;SDS011;10308;42.688;23.256;2022-09-16T14:59:45;2.63;;;2.42;;
20298;SDS011;10308;42.688;23.256;2022-09-16T15:02:14;2.95;;;2.10;;
20298;SDS011;10308;42.688;23.256;2022-09-16T15:04:43;2.70;;;2.00;;
20298;SDS011;10308;42.688;23.256;2022-09-16T15:07:13;3.63;;;3.30;;
20298;SDS011;10308;42.688;23.256;2022-09-16T15:09:45;5.22;;;2.97;;